Time;durP1;ratioP1;P1;durP2;ratioP2;P2;SDS_P1;SDS_P2;PMS_P1;PMS_P2;Temp;Humidity;BMP_temperature;BMP_pressure;BME280_temperature;BME280_humidity;BME280_pressure;Samples;Min_cycle;Max_cycle;Signal;HPM_P1;HPM_P2
2023/01/29 00:01:14;;;;;;;9.33;7.80;;;0.80;99.90;;;;;;5076513;28;20541;-69
2023/01/29 00:03:41;;;;;;;14.37;7.90;;;0.90;99.90;;;;;;5075600;28;20454;-69
2023/01/29 00:06:10;;;;;;;11.60;9.03;;;0.80;99.90;;;;;;5075823;28;20462;-69
2023/01/29 00:08:38;;;;;;;13.53;8.33;;;0.80;99.90;;;;;;5075957;28;20483;-70
2023/01/29 00:11:08;;;;;;;11.17;8.40;;;0.80;99.90;;;;;;5075938;28;20613;-69
2023/01/29 00:13:35;;;;;;;10.10;8.27;;;0.80;99.90;;;;;;5075025;28;20461;-69
2023/01/29 00:16:03;;;;;;;12.70;9.23;;;0.80;99.90;;;;;;5075258;28;20942;-69
2023/01/29 00:18:31;;;;;;;9.80;7.60;;;0.80;99.90;;;;;;5074978;28;20465;-69
2023/01/29 00:20:59;;;;;;;10.33;8.53;;;0.80;99.90;;;;;;5075546;28;20472;-69
2023/01/29 00:23:25;;;;;;;12.53;8.90;;;0.80;99.90;;;;;;5075413;28;20469;-67
2023/01/29 00:25:52;;;;;;;14.43;8.93;;;0.80;99.90;;;;;;5074848;28;20545;-69
2023/01/29 00:28:19;;;;;;;15.13;8.50;;;0.80;99.90;;;;;;5075347;28;20898;-69
2023/01/29 00:30:46;;;;;;;13.70;9.70;;;0.80;99.90;;;;;;5075818;28;20450;-69
2023/01/29 00:33:13;;;;;;;15.63;10.60;;;0.80;99.90;;;;;;5075519;28;20553;-69
2023/01/29 00:35:41;;;;;;;11.53;8.50;;;0.80;99.90;;;;;;5075530;28;20454;-70
2023/01/29 00:38:08;;;;;;;11.87;9.13;;;0.80;99.90;;;;;;5075891;28;20486;-68
2023/01/29 00:46:07;;;;;;;28.33;19.07;;;0.90;99.90;;;;;;5075363;28;20417;-69
2023/01/29 00:48:34;;;;;;;41.20;26.33;;;0.90;99.90;;;;;;5075340;28;20481;-69
2023/01/29 00:51:03;;;;;;;42.10;23.53;;;0.90;99.90;;;;;;5074883;28;20454;-69
2023/01/29 00:53:30;;;;;;;48.67;26.07;;;0.90;99.90;;;;;;5075512;28;20490;-69
2023/01/29 00:55:57;;;;;;;41.47;19.40;;;0.90;99.90;;;;;;5075382;28;20537;-68
2023/01/29 00:58:26;;;;;;;18.83;12.50;;;1.00;99.90;;;;;;5074905;28;20544;-69
2023/01/29 01:00:54;;;;;;;20.60;12.27;;;1.00;99.90;;;;;;5074973;28;20535;-70
2023/01/29 01:03:20;;;;;;;17.60;13.00;;;1.00;99.90;;;;;;5075180;28;20485;-69
2023/01/29 01:05:47;;;;;;;17.97;11.47;;;0.90;99.90;;;;;;5074926;28;20453;-69
2023/01/29 01:11:01;;;;;;;21.00;10.77;;;0.90;99.90;;;;;;5075038;28;20430;-69
2023/01/29 01:13:29;;;;;;;17.40;11.17;;;1.00;99.90;;;;;;5075017;28;20788;-68
2023/01/29 01:15:56;;;;;;;13.00;10.40;;;1.00;99.90;;;;;;5078799;28;20549;-69
2023/01/29 01:18:23;;;;;;;16.63;10.17;;;1.00;99.90;;;;;;5078969;28;20456;-69
2023/01/29 01:20:50;;;;;;;17.60;10.77;;;1.00;99.90;;;;;;5079191;28;20493;-69
2023/01/29 01:23:19;;;;;;;16.87;11.63;;;1.00;99.90;;;;;;5078687;28;20461;-68
2023/01/29 01:25:46;;;;;;;18.30;12.33;;;0.90;99.90;;;;;;5078921;28;20490;-69
2023/01/29 01:28:13;;;;;;;19.00;13.10;;;0.90;99.90;;;;;;5078475;28;20454;-69
2023/01/29 01:30:40;;;;;;;18.30;13.33;;;0.90;99.90;;;;;;5078316;28;20446;-69
2023/01/29 01:33:07;;;;;;;19.47;13.27;;;0.90;99.90;;;;;;5078399;28;20550;-69
2023/01/29 01:35:34;;;;;;;19.57;12.40;;;0.90;99.90;;;;;;5078443;28;20987;-69
2023/01/29 01:38:01;;;;;;;19.60;12.87;;;0.90;99.90;;;;;;5078314;28;20862;-70
2023/01/29 01:40:29;;;;;;;18.53;12.50;;;0.90;99.90;;;;;;5078179;28;20478;-69
2023/01/29 01:42:59;;;;;;;19.63;14.00;;;0.90;99.90;;;;;;5078263;28;20966;-69
2023/01/29 01:45:28;;;;;;;16.87;12.87;;;1.00;99.90;;;;;;5078427;28;20915;-69
2023/01/29 01:48:00;;;;;;;18.03;13.67;;;1.00;99.90;;;;;;5078389;28;20454;-70
2023/01/29 01:50:33;;;;;;;22.30;14.80;;;0.90;99.90;;;;;;5078375;28;20449;-69
2023/01/29 01:53:04;;;;;;;20.30;14.10;;;0.90;99.90;;;;;;5077933;28;20541;-69
2023/01/29 01:55:34;;;;;;;22.40;13.67;;;0.90;99.90;;;;;;5078206;28;20470;-69
2023/01/29 01:58:06;;;;;;;22.10;13.47;;;0.90;99.90;;;;;;5078320;28;20746;-70
2023/01/29 02:00:34;;;;;;;23.17;14.80;;;0.90;99.90;;;;;;5077903;28;20557;-68
2023/01/29 02:11:25;;;;;;;22.20;13.13;;;0.90;99.90;;;;;;5078608;28;20491;-69
2023/01/29 02:13:53;;;;;;;18.70;13.80;;;1.00;99.90;;;;;;5078462;28;20544;-69
2023/01/29 02:16:20;;;;;;;17.67;11.67;;;0.90;99.90;;;;;;5078287;28;20458;-69
2023/01/29 02:18:47;;;;;;;20.63;13.47;;;1.00;99.90;;;;;;5078197;28;20454;-69
2023/01/29 02:21:41;;;;;;;18.20;12.67;;;1.00;99.90;;;;;;5078075;28;20478;-69
2023/01/29 02:25:08;;;;;;;16.90;12.77;;;1.00;99.90;;;;;;5077852;28;20825;-70
2023/01/29 02:27:48;;;;;;;20.63;12.40;;;1.10;99.90;;;;;;5035395;28;20472;-69
2023/01/29 02:30:23;;;;;;;19.27;13.50;;;1.10;99.90;;;;;;5035948;28;20927;-68
2023/01/29 02:32:59;;;;;;;19.40;13.40;;;1.10;99.90;;;;;;5068403;28;20785;-69
2023/01/29 02:35:30;;;;;;;18.93;11.90;;;1.10;99.90;;;;;;5077664;28;20445;-69
2023/01/29 02:38:10;;;;;;;15.73;12.13;;;1.10;99.90;;;;;;5077964;28;20434;-69
2023/01/29 02:40:43;;;;;;;18.93;13.93;;;1.10;99.90;;;;;;5077659;28;20564;-69
2023/01/29 02:43:23;;;;;;;19.90;12.80;;;1.10;99.90;;;;;;5076983;28;20494;-69
2023/01/29 02:45:58;;;;;;;18.33;11.90;;;1.10;99.90;;;;;;5078221;28;20831;-70
2023/01/29 02:48:29;;;;;;;20.53;12.17;;;1.10;99.90;;;;;;5077499;28;20474;-70
2023/01/29 02:51:02;;;;;;;19.30;13.50;;;1.10;99.90;;;;;;5077172;28;20454;-69
2023/01/29 02:53:36;;;;;;;17.63;12.50;;;1.10;99.90;;;;;;5077445;28;20503;-69
2023/01/29 02:56:10;;;;;;;20.20;11.30;;;1.10;99.90;;;;;;5078077;28;20621;-69
2023/01/29 02:58:42;;;;;;;18.10;12.60;;;1.10;99.90;;;;;;5077440;28;20468;-70
2023/01/29 03:01:13;;;;;;;16.90;11.20;;;1.10;99.90;;;;;;5078445;28;20569;-70
2023/01/29 03:03:43;;;;;;;19.70;12.40;;;1.10;99.90;;;;;;5077669;28;20470;-70
2023/01/29 03:06:19;;;;;;;17.93;12.03;;;1.10;99.90;;;;;;5077532;28;20466;-69
2023/01/29 03:08:54;;;;;;;20.40;13.30;;;1.10;99.90;;;;;;5077923;28;20449;-67
2023/01/29 03:11:21;;;;;;;17.30;12.30;;;1.10;99.90;;;;;;5077538;28;20442;-70
2023/01/29 03:13:52;;;;;;;15.10;11.20;;;1.10;99.90;;;;;;5076898;28;20453;-69
2023/01/29 03:16:26;;;;;;;19.50;11.80;;;1.20;99.90;;;;;;5077128;28;20446;-69
2023/01/29 03:18:57;;;;;;;19.53;13.33;;;1.20;99.90;;;;;;5077270;28;20493;-68
2023/01/29 03:32:42;;;;;;;16.70;12.03;;;1.30;99.90;;;;;;5077039;28;20500;-69
2023/01/29 03:35:12;;;;;;;19.10;13.40;;;1.30;99.90;;;;;;5076788;28;20549;-69
2023/01/29 03:37:43;;;;;;;23.80;13.60;;;1.30;99.90;;;;;;5077058;28;20458;-69
2023/01/29 03:40:11;;;;;;;20.03;14.10;;;1.30;99.90;;;;;;5076211;28;20569;-69
2023/01/29 03:42:49;;;;;;;23.13;14.13;;;1.30;99.90;;;;;;5076135;28;20458;-68
2023/01/29 03:45:23;;;;;;;23.20;12.10;;;1.30;99.90;;;;;;5076171;28;20450;-69
2023/01/29 03:47:58;;;;;;;23.00;14.03;;;1.20;99.90;;;;;;5075914;28;20453;-68
2023/01/29 03:50:34;;;;;;;21.47;13.13;;;1.20;99.90;;;;;;5076209;28;20434;-70
2023/01/29 03:53:08;;;;;;;20.07;13.80;;;1.20;99.90;;;;;;5076637;28;20938;-69
2023/01/29 03:55:41;;;;;;;25.93;14.37;;;1.20;99.90;;;;;;5076533;28;20470;-70
2023/01/29 03:58:19;;;;;;;21.67;13.77;;;1.20;99.90;;;;;;5076394;28;20449;-68
2023/01/29 04:00:54;;;;;;;19.63;12.57;;;1.20;99.90;;;;;;5076101;28;20474;-68
2023/01/29 04:03:29;;;;;;;22.40;13.90;;;1.30;99.90;;;;;;5076433;28;20453;-70
2023/01/29 04:06:04;;;;;;;20.37;13.50;;;1.30;99.90;;;;;;5076486;28;20443;-69
2023/01/29 04:08:34;;;;;;;18.70;13.17;;;1.30;99.90;;;;;;5076195;28;20445;-69
2023/01/29 04:11:07;;;;;;;19.77;12.27;;;1.30;99.90;;;;;;5076421;28;20439;-69
2023/01/29 04:13:34;;;;;;;22.33;14.13;;;1.40;99.90;;;;;;5076090;28;20439;-69
2023/01/29 04:16:05;;;;;;;17.57;13.43;;;1.30;99.90;;;;;;5076182;28;20545;-70
2023/01/29 04:18:34;;;;;;;21.70;12.67;;;1.40;99.90;;;;;;5076289;28;20442;-69
2023/01/29 04:21:01;;;;;;;18.37;13.20;;;1.40;99.90;;;;;;5075197;28;20482;-69
2023/01/29 04:23:28;;;;;;;21.90;14.33;;;1.30;99.90;;;;;;5075615;28;20768;-70
2023/01/29 04:26:11;;;;;;;19.77;14.03;;;1.30;99.90;;;;;;5075412;28;20458;-69
2023/01/29 04:28:52;;;;;;;20.70;13.27;;;1.30;99.90;;;;;;5075528;28;20465;-69
2023/01/29 04:31:26;;;;;;;18.70;13.67;;;1.20;99.90;;;;;;5075393;28;20521;-69
2023/01/29 04:34:04;;;;;;;21.53;14.13;;;1.20;99.90;;;;;;5075095;28;20517;-69
2023/01/29 04:36:38;;;;;;;35.43;14.20;;;1.10;99.90;;;;;;5075095;28;20434;-69
2023/01/29 04:39:13;;;;;;;23.37;12.90;;;1.00;99.90;;;;;;5075319;28;20832;-67
2023/01/29 04:41:49;;;;;;;22.00;13.80;;;1.10;99.90;;;;;;5075476;28;20462;-70
2023/01/29 04:44:21;;;;;;;23.27;14.30;;;1.10;99.90;;;;;;5075190;28;20482;-69
2023/01/29 04:46:52;;;;;;;23.10;14.00;;;1.10;99.90;;;;;;5075184;28;20442;-69
2023/01/29 04:49:31;;;;;;;22.00;15.13;;;1.10;99.90;;;;;;5074767;28;20442;-69
2023/01/29 04:52:06;;;;;;;22.70;14.27;;;1.10;99.90;;;;;;5075175;28;20940;-69
2023/01/29 04:54:43;;;;;;;22.33;13.90;;;1.10;99.90;;;;;;5075990;28;20446;-68
2023/01/29 04:57:16;;;;;;;22.40;14.80;;;1.10;99.90;;;;;;5075646;28;20474;-69
2023/01/29 04:59:48;;;;;;;24.97;14.80;;;1.10;99.90;;;;;;5076109;28;20454;-70
2023/01/29 05:02:15;;;;;;;22.30;14.53;;;1.10;99.90;;;;;;5076017;28;20470;-68
2023/01/29 05:04:45;;;;;;;26.37;16.30;;;1.10;99.90;;;;;;5075945;28;20461;-69
2023/01/29 05:07:14;;;;;;;29.23;16.40;;;1.10;99.90;;;;;;5075368;28;20990;-70
2023/01/29 05:09:45;;;;;;;24.50;15.63;;;1.10;99.90;;;;;;5075500;28;20549;-69
2023/01/29 05:12:14;;;;;;;25.93;16.63;;;1.10;99.90;;;;;;5074930;28;20529;-69
2023/01/29 05:14:44;;;;;;;28.33;16.13;;;1.10;99.90;;;;;;5074828;28;20456;-69
2023/01/29 05:17:15;;;;;;;28.20;16.10;;;1.10;99.90;;;;;;5074761;28;20464;-69
2023/01/29 05:19:44;;;;;;;34.90;18.27;;;1.00;99.90;;;;;;5074746;28;20446;-70
2023/01/29 05:22:12;;;;;;;28.37;17.77;;;0.90;99.90;;;;;;5074914;28;20816;-69
2023/01/29 05:24:39;;;;;;;36.10;20.23;;;0.90;99.90;;;;;;5074412;28;20497;-69
2023/01/29 05:29:51;;;;;;;37.97;20.80;;;0.90;99.90;;;;;;5074587;28;20430;-68
2023/01/29 05:32:18;;;;;;;32.13;20.03;;;0.90;99.90;;;;;;5074825;28;20507;-69
2023/01/29 05:34:46;;;;;;;36.40;20.20;;;0.90;99.90;;;;;;5074491;28;20541;-69
2023/01/29 05:37:13;;;;;;;36.40;20.53;;;0.90;99.90;;;;;;5074499;28;20526;-69
2023/01/29 05:39:40;;;;;;;38.70;19.73;;;0.90;99.90;;;;;;5074554;28;20461;-69
2023/01/29 05:42:06;;;;;;;32.73;19.10;;;0.90;99.90;;;;;;5074619;28;20492;-69
2023/01/29 05:44:33;;;;;;;33.63;18.93;;;0.90;99.90;;;;;;5074159;28;20984;-69
2023/01/29 05:47:01;;;;;;;36.07;20.20;;;0.90;99.90;;;;;;5074567;28;20778;-71
2023/01/29 05:49:28;;;;;;;34.13;20.97;;;0.90;99.90;;;;;;5074755;28;20458;-70
2023/01/29 05:51:56;;;;;;;37.13;21.03;;;0.90;99.90;;;;;;5074838;28;20966;-69
2023/01/29 05:54:23;;;;;;;35.90;22.23;;;0.90;99.90;;;;;;5075061;28;20779;-68
2023/01/29 05:56:50;;;;;;;36.40;21.43;;;0.90;99.90;;;;;;5074211;28;20464;-69
2023/01/29 05:59:17;;;;;;;33.10;21.17;;;0.90;99.90;;;;;;5074259;28;20549;-69
2023/01/29 06:01:44;;;;;;;35.17;22.20;;;0.90;99.90;;;;;;5077832;28;20573;-69
2023/01/29 06:04:11;;;;;;;38.40;22.27;;;1.00;99.90;;;;;;5078319;28;20485;-69
2023/01/29 06:06:37;;;;;;;36.63;22.53;;;1.00;99.90;;;;;;5077616;28;20493;-69
2023/01/29 06:09:06;;;;;;;36.00;20.80;;;1.00;99.90;;;;;;5078297;28;20464;-69
2023/01/29 06:11:32;;;;;;;39.57;22.27;;;1.10;99.90;;;;;;5081077;28;20775;-69
2023/01/29 06:13:59;;;;;;;36.57;22.47;;;1.00;99.90;;;;;;5077581;28;20454;-69
2023/01/29 06:16:26;;;;;;;33.33;20.60;;;1.10;99.90;;;;;;5077878;28;20548;-69
2023/01/29 06:18:53;;;;;;;42.00;21.37;;;1.10;99.90;;;;;;5077657;28;20533;-69
2023/01/29 06:21:20;;;;;;;38.57;20.90;;;1.10;99.90;;;;;;5077645;28;20478;-70
2023/01/29 06:23:47;;;;;;;34.30;22.20;;;1.10;99.90;;;;;;5077698;28;20515;-69
2023/01/29 06:26:16;;;;;;;38.90;22.37;;;1.10;99.90;;;;;;5077731;28;20457;-70
2023/01/29 06:28:44;;;;;;;34.67;21.43;;;1.10;99.90;;;;;;5077506;28;20894;-68
2023/01/29 06:31:12;;;;;;;40.63;20.80;;;1.10;99.90;;;;;;5077339;28;20454;-69
2023/01/29 06:33:38;;;;;;;34.17;21.37;;;1.20;99.90;;;;;;5077323;28;20465;-68
2023/01/29 06:36:06;;;;;;;33.30;21.37;;;1.20;99.90;;;;;;5077148;28;20458;-69
2023/01/29 06:38:33;;;;;;;35.70;20.50;;;1.20;99.90;;;;;;5077527;28;20454;-69
2023/01/29 06:41:00;;;;;;;32.07;21.23;;;1.20;99.90;;;;;;5077244;28;20478;-68
2023/01/29 06:43:28;;;;;;;32.87;19.13;;;1.20;99.90;;;;;;5077073;28;21027;-68
2023/01/29 06:45:56;;;;;;;34.67;20.77;;;1.20;99.90;;;;;;5077473;28;20551;-69
2023/01/29 06:48:24;;;;;;;28.27;18.77;;;1.20;99.90;;;;;;5077606;28;20462;-68
2023/01/29 06:50:53;;;;;;;30.80;18.60;;;1.20;99.90;;;;;;5077539;28;20450;-69
2023/01/29 06:53:21;;;;;;;32.57;18.20;;;1.20;99.90;;;;;;5077458;28;20867;-70
2023/01/29 06:55:52;;;;;;;38.30;19.53;;;1.20;99.90;;;;;;5077562;28;20529;-68
2023/01/29 06:58:19;;;;;;;31.73;18.93;;;1.20;99.90;;;;;;5077518;28;20438;-69
2023/01/29 07:00:47;;;;;;;31.50;17.70;;;1.20;99.90;;;;;;5076867;28;20974;-69
2023/01/29 07:03:14;;;;;;;32.43;20.47;;;1.20;99.90;;;;;;5076911;28;20558;-69
2023/01/29 07:05:41;;;;;;;29.40;20.10;;;1.30;99.90;;;;;;5077456;28;20531;-70
2023/01/29 07:08:08;;;;;;;30.80;19.87;;;1.30;99.90;;;;;;5068124;28;20459;-70
2023/01/29 07:10:36;;;;;;;29.80;19.30;;;1.30;99.90;;;;;;5056848;28;20470;-69
2023/01/29 07:13:02;;;;;;;32.47;19.20;;;1.30;99.90;;;;;;5056964;28;20491;-69
2023/01/29 07:15:29;;;;;;;31.73;19.10;;;1.30;99.90;;;;;;5056999;28;20546;-69
2023/01/29 07:17:59;;;;;;;32.80;19.67;;;1.30;99.90;;;;;;5056832;28;20465;-70
2023/01/29 07:20:27;;;;;;;32.87;18.80;;;1.30;99.90;;;;;;5057586;28;20451;-69
2023/01/29 07:22:53;;;;;;;33.03;20.10;;;1.40;99.90;;;;;;5057730;28;20489;-69
2023/01/29 07:25:21;;;;;;;29.87;19.10;;;1.30;99.90;;;;;;5056772;28;20470;-69
2023/01/29 07:27:48;;;;;;;32.37;18.03;;;1.30;99.90;;;;;;5056494;28;20991;-69
2023/01/29 07:30:16;;;;;;;31.30;18.63;;;1.30;99.90;;;;;;5056697;28;20965;-69
2023/01/29 07:32:42;;;;;;;31.90;20.10;;;1.30;99.90;;;;;;5056557;28;20769;-68
2023/01/29 07:35:11;;;;;;;32.77;19.67;;;1.40;99.90;;;;;;5056484;28;20788;-69
2023/01/29 07:37:38;;;;;;;30.97;17.93;;;1.30;99.90;;;;;;5056159;28;20542;-69
2023/01/29 07:40:10;;;;;;;36.00;21.10;;;1.40;99.90;;;;;;5056305;28;20466;-70
2023/01/29 07:42:37;;;;;;;37.20;20.93;;;1.40;99.90;;;;;;5056133;28;20467;-69
2023/01/29 07:45:05;;;;;;;33.57;20.77;;;1.40;99.90;;;;;;5056358;28;20549;-69
2023/01/29 07:47:31;;;;;;;31.87;18.63;;;1.40;99.90;;;;;;5056634;28;20551;-69
2023/01/29 07:49:58;;;;;;;37.90;19.40;;;1.40;99.90;;;;;;5056114;28;20469;-69
2023/01/29 07:52:27;;;;;;;33.60;21.17;;;1.40;99.90;;;;;;5056324;28;20904;-69
2023/01/29 07:54:53;;;;;;;31.50;18.87;;;1.40;99.90;;;;;;5056352;28;20459;-69
2023/01/29 07:57:20;;;;;;;33.80;19.40;;;1.50;99.90;;;;;;5056327;28;20777;-69
2023/01/29 07:59:47;;;;;;;33.40;18.03;;;1.50;99.90;;;;;;5056672;28;20465;-69
2023/01/29 08:02:14;;;;;;;31.50;18.40;;;1.50;99.90;;;;;;5056269;28;20479;-68
2023/01/29 08:04:41;;;;;;;31.67;18.63;;;1.50;99.90;;;;;;5056823;28;20541;-69
2023/01/29 08:07:08;;;;;;;33.23;18.70;;;1.60;99.90;;;;;;5056270;28;20541;-70
2023/01/29 08:09:36;;;;;;;35.43;20.17;;;1.60;99.90;;;;;;5056423;28;20588;-69
2023/01/29 08:12:03;;;;;;;31.73;19.30;;;1.60;99.90;;;;;;5069444;28;20450;-70
2023/01/29 08:14:30;;;;;;;33.50;19.63;;;1.70;99.90;;;;;;5076819;28;20454;-69
2023/01/29 08:16:57;;;;;;;35.13;19.80;;;1.70;99.90;;;;;;5076664;28;20925;-69
2023/01/29 08:19:24;;;;;;;32.97;20.23;;;1.70;99.90;;;;;;5076368;28;20848;-69
2023/01/29 08:21:51;;;;;;;30.10;18.93;;;1.60;99.90;;;;;;5076112;28;20554;-70
2023/01/29 08:24:18;;;;;;;31.33;20.50;;;1.60;99.90;;;;;;5075746;28;20458;-69
2023/01/29 08:26:46;;;;;;;40.37;20.80;;;1.70;99.90;;;;;;5076150;28;20780;-68
2023/01/29 08:29:13;;;;;;;30.60;17.90;;;1.70;99.90;;;;;;5075654;28;21013;-69
2023/01/29 08:31:40;;;;;;;34.00;20.30;;;1.70;99.90;;;;;;5075647;28;20950;-69
2023/01/29 08:34:07;;;;;;;32.53;20.03;;;1.70;99.90;;;;;;5075631;28;20922;-69
2023/01/29 08:36:34;;;;;;;32.30;20.50;;;1.70;99.90;;;;;;5074890;28;20541;-69
2023/01/29 08:39:01;;;;;;;31.97;19.20;;;1.70;99.90;;;;;;5075240;28;20454;-69
2023/01/29 08:41:28;;;;;;;34.40;21.33;;;1.70;99.90;;;;;;5075501;28;20489;-68
2023/01/29 08:43:56;;;;;;;36.30;20.60;;;1.70;99.90;;;;;;5075663;28;20819;-69
2023/01/29 08:46:23;;;;;;;36.70;20.33;;;1.70;99.90;;;;;;5075795;28;20465;-69
2023/01/29 08:48:50;;;;;;;37.27;20.33;;;1.80;99.90;;;;;;5075710;28;20458;-70
2023/01/29 08:51:17;;;;;;;36.93;21.20;;;1.80;99.90;;;;;;5075718;28;20796;-69
2023/01/29 08:53:44;;;;;;;33.10;19.93;;;1.80;99.90;;;;;;5075279;28;20454;-68
2023/01/29 08:56:11;;;;;;;32.70;20.50;;;1.80;99.90;;;;;;5074763;28;20458;-69
2023/01/29 08:58:38;;;;;;;32.70;19.60;;;1.80;99.90;;;;;;5074644;28;20490;-68
2023/01/29 09:01:11;;;;;;;35.57;19.80;;;1.80;99.90;;;;;;5075477;28;20482;-69
2023/01/29 09:03:39;;;;;;;34.30;18.80;;;1.80;99.90;;;;;;5075928;28;20465;-68
2023/01/29 09:06:07;;;;;;;27.57;18.00;;;1.80;99.90;;;;;;5075751;28;20469;-69
2023/01/29 09:08:34;;;;;;;33.87;19.07;;;1.80;99.90;;;;;;5075434;28;20454;-69
2023/01/29 09:11:01;;;;;;;30.83;19.73;;;1.80;99.90;;;;;;5075632;28;20469;-69
2023/01/29 09:13:28;;;;;;;32.53;19.60;;;1.90;99.90;;;;;;5075039;28;20454;-68
2023/01/29 09:15:58;;;;;;;30.60;19.20;;;1.90;99.90;;;;;;5075705;28;20486;-69
2023/01/29 09:18:26;;;;;;;30.23;18.77;;;1.90;99.90;;;;;;5075031;28;20517;-68
2023/01/29 09:20:53;;;;;;;40.13;20.60;;;1.90;99.90;;;;;;5074741;28;20494;-69
2023/01/29 09:23:20;;;;;;;38.00;20.70;;;1.90;99.90;;;;;;5074807;28;20482;-70
2023/01/29 09:25:47;;;;;;;39.30;21.00;;;1.90;99.90;;;;;;5074592;28;20458;-69
2023/01/29 09:28:16;;;;;;;34.03;19.93;;;1.90;99.90;;;;;;5074664;28;20565;-69
2023/01/29 09:30:43;;;;;;;33.30;20.23;;;2.00;99.90;;;;;;5075133;28;20481;-69
2023/01/29 09:33:10;;;;;;;35.43;20.20;;;2.00;99.90;;;;;;5075438;28;20460;-69
2023/01/29 09:35:41;;;;;;;31.57;18.70;;;2.00;99.90;;;;;;5076364;28;20554;-68
2023/01/29 09:38:08;;;;;;;32.07;18.80;;;2.00;99.90;;;;;;5078837;28;20445;-68
2023/01/29 09:40:43;;;;;;;35.20;19.37;;;2.10;99.90;;;;;;5078974;28;20548;-69
2023/01/29 09:43:16;;;;;;;32.50;19.53;;;2.10;99.90;;;;;;5079688;28;20488;-70
2023/01/29 09:45:51;;;;;;;32.77;19.10;;;2.10;99.90;;;;;;5081442;28;20467;-70
2023/01/29 09:48:20;;;;;;;29.47;18.40;;;2.10;99.90;;;;;;5079692;28;20454;-70
2023/01/29 09:50:51;;;;;;;30.90;17.80;;;2.20;99.90;;;;;;5078318;28;20854;-70
2023/01/29 09:53:21;;;;;;;24.80;17.37;;;2.20;99.90;;;;;;5078409;28;20448;-68
2023/01/29 09:55:52;;;;;;;28.50;18.37;;;2.20;99.90;;;;;;5078541;28;20543;-70
2023/01/29 09:58:25;;;;;;;29.60;17.97;;;2.30;99.90;;;;;;5078687;28;20442;-69
2023/01/29 10:00:58;;;;;;;29.23;16.40;;;2.30;99.90;;;;;;5078543;28;20448;-69
2023/01/29 10:03:40;;;;;;;27.87;16.63;;;2.40;99.90;;;;;;5079008;28;20466;-70
2023/01/29 10:06:21;;;;;;;28.20;16.63;;;2.40;99.90;;;;;;5078838;28;20525;-69
2023/01/29 10:09:26;;;;;;;25.60;16.50;;;2.40;99.90;;;;;;5078679;28;20450;-69
2023/01/29 10:12:02;;;;;;;27.60;16.00;;;2.50;99.90;;;;;;5066741;28;20948;-67
2023/01/29 10:14:36;;;;;;;21.97;14.83;;;2.60;99.90;;;;;;5078165;28;20533;-69
2023/01/29 10:17:26;;;;;;;24.40;15.70;;;2.60;99.90;;;;;;5077779;28;20440;-69
2023/01/29 10:20:13;;;;;;;22.17;14.97;;;2.60;99.90;;;;;;5077990;28;20449;-69
2023/01/29 10:22:53;;;;;;;29.40;17.40;;;2.60;99.90;;;;;;5077802;28;20476;-69
2023/01/29 10:25:22;;;;;;;26.60;17.00;;;2.70;99.90;;;;;;5079068;28;20438;-69
2023/01/29 10:27:51;;;;;;;26.40;16.70;;;2.70;99.90;;;;;;5077666;28;20914;-69
2023/01/29 10:30:28;;;;;;;27.73;16.73;;;2.70;99.90;;;;;;5077959;28;20494;-70
2023/01/29 10:32:57;;;;;;;30.30;18.67;;;2.70;99.90;;;;;;5078112;28;20438;-70
2023/01/29 10:35:29;;;;;;;25.50;15.60;;;2.70;99.90;;;;;;5078232;28;20468;-69
2023/01/29 10:38:12;;;;;;;25.07;16.07;;;2.70;99.90;;;;;;5078318;28;20537;-69
2023/01/29 10:40:46;;;;;;;25.17;15.27;;;2.80;99.90;;;;;;5078331;28;20906;-70
2023/01/29 10:43:22;;;;;;;26.93;14.87;;;2.80;99.90;;;;;;5077808;28;20581;-70
2023/01/29 10:45:58;;;;;;;28.73;17.00;;;2.80;99.90;;;;;;5077889;28;20529;-70
2023/01/29 10:48:47;;;;;;;24.57;15.07;;;2.80;99.90;;;;;;5077392;28;20504;-71
2023/01/29 10:51:26;;;;;;;25.63;14.33;;;2.80;99.90;;;;;;5077320;28;20447;-69
2023/01/29 10:54:07;;;;;;;22.87;14.77;;;2.80;99.90;;;;;;5077717;28;20439;-70
2023/01/29 10:56:50;;;;;;;22.70;15.03;;;2.90;99.90;;;;;;5077633;28;20786;-71
2023/01/29 10:59:36;;;;;;;23.13;15.77;;;3.00;99.90;;;;;;5077523;28;20785;-70
2023/01/29 11:02:12;;;;;;;23.03;14.77;;;3.00;99.90;;;;;;5077241;28;20466;-70
2023/01/29 11:04:39;;;;;;;23.57;15.17;;;3.10;99.90;;;;;;5077156;28;20741;-70
2023/01/29 11:07:06;;;;;;;25.00;15.80;;;3.20;99.90;;;;;;5077495;28;20455;-70
2023/01/29 11:09:39;;;;;;;23.70;14.53;;;3.30;99.90;;;;;;5077621;28;20927;-69
2023/01/29 11:12:13;;;;;;;28.27;15.90;;;3.40;99.90;;;;;;5077723;28;20442;-69
2023/01/29 11:14:44;;;;;;;33.87;19.10;;;3.50;99.90;;;;;;5077025;28;20529;-70
2023/01/29 11:17:16;;;;;;;23.70;15.17;;;3.50;99.90;;;;;;5077832;28;20453;-71
2023/01/29 11:19:44;;;;;;;23.57;13.40;;;3.60;99.90;;;;;;5078219;28;20446;-69
2023/01/29 11:22:15;;;;;;;19.73;13.57;;;3.70;99.90;;;;;;5077989;28;20569;-71
2023/01/29 11:24:43;;;;;;;17.23;12.93;;;3.80;99.90;;;;;;5077993;28;20465;-69
2023/01/29 11:27:24;;;;;;;19.43;13.57;;;3.90;99.90;;;;;;5077624;28;20464;-71
2023/01/29 11:29:53;;;;;;;19.70;12.70;;;3.90;99.90;;;;;;5076797;28;20462;-70
2023/01/29 11:32:28;;;;;;;20.00;12.73;;;3.90;99.90;;;;;;5078265;28;20849;-70
2023/01/29 11:35:00;;;;;;;19.10;13.33;;;3.90;99.90;;;;;;5077774;28;20511;-68
2023/01/29 11:37:36;;;;;;;19.20;12.67;;;4.00;99.90;;;;;;5076700;28;20784;-71
2023/01/29 11:40:36;;;;;;;19.93;13.93;;;4.00;99.90;;;;;;5077572;28;20500;-69
2023/01/29 11:43:28;;;;;;;16.70;12.50;;;4.00;99.90;;;;;;5077417;28;20490;-69
2023/01/29 11:45:58;;;;;;;18.43;11.83;;;3.90;99.90;;;;;;5077240;28;20458;-69
2023/01/29 11:48:32;;;;;;;18.77;11.90;;;3.90;99.90;;;;;;5075963;28;20545;-71
2023/01/29 11:51:00;;;;;;;15.80;11.13;;;3.80;99.90;;;;;;5077605;28;20446;-69
2023/01/29 11:53:36;;;;;;;17.83;11.73;;;3.90;99.90;;;;;;5076874;28;20533;-70
2023/01/29 11:56:13;;;;;;;17.67;11.77;;;4.00;99.90;;;;;;5077049;28;20453;-70
2023/01/29 11:58:42;;;;;;;18.20;12.50;;;4.00;99.90;;;;;;5076599;28;20496;-69
2023/01/29 12:01:10;;;;;;;17.80;11.07;;;4.00;99.90;;;;;;5076689;28;20553;-72
2023/01/29 12:03:42;;;;;;;21.10;13.70;;;4.00;99.90;;;;;;5076798;28;20474;-70
2023/01/29 12:06:18;;;;;;;16.03;11.27;;;4.10;99.90;;;;;;5077690;28;20453;-70
2023/01/29 12:08:53;;;;;;;17.83;11.80;;;4.10;99.90;;;;;;5076247;28;20962;-70
2023/01/29 12:11:28;;;;;;;18.80;12.10;;;4.20;99.90;;;;;;5076540;28;20521;-69
2023/01/29 12:13:56;;;;;;;16.97;11.33;;;4.30;99.90;;;;;;5077043;28;20481;-68
2023/01/29 12:16:28;;;;;;;15.87;11.90;;;4.30;99.90;;;;;;5076351;28;20458;-69
2023/01/29 12:19:00;;;;;;;16.13;11.43;;;4.40;99.90;;;;;;5076693;28;20966;-69
2023/01/29 12:21:33;;;;;;;16.83;11.83;;;4.40;99.90;;;;;;5077173;28;20457;-70
2023/01/29 12:24:06;;;;;;;19.63;11.63;;;4.40;99.90;;;;;;5076965;28;20467;-70
2023/01/29 12:26:39;;;;;;;17.63;10.57;;;4.50;99.90;;;;;;5076263;28;20438;-71
2023/01/29 12:29:20;;;;;;;17.20;11.80;;;4.50;99.90;;;;;;5076946;28;20787;-70
2023/01/29 12:31:53;;;;;;;17.97;11.97;;;4.50;99.90;;;;;;5077401;28;20443;-69
2023/01/29 12:34:27;;;;;;;17.13;11.30;;;4.50;99.90;;;;;;5076775;28;20438;-70
2023/01/29 12:37:03;;;;;;;20.00;12.10;;;4.40;99.90;;;;;;5077341;28;20526;-69
2023/01/29 12:39:31;;;;;;;19.00;12.83;;;4.40;99.90;;;;;;5077644;28;20438;-69
2023/01/29 12:42:03;;;;;;;17.60;11.63;;;4.30;99.90;;;;;;5077892;28;20462;-69
2023/01/29 12:44:35;;;;;;;19.03;11.63;;;4.30;99.90;;;;;;5077914;28;20482;-69
2023/01/29 12:47:07;;;;;;;13.33;10.70;;;4.30;99.90;;;;;;5077678;28;20468;-69
2023/01/29 12:49:37;;;;;;;16.20;11.67;;;4.30;99.90;;;;;;5078430;28;20533;-70
2023/01/29 12:52:10;;;;;;;15.47;11.30;;;4.20;99.90;;;;;;5078728;28;20448;-69
2023/01/29 12:54:41;;;;;;;18.73;11.57;;;4.10;99.90;;;;;;5077628;28;20879;-69
2023/01/29 12:57:20;;;;;;;16.47;11.27;;;4.00;99.90;;;;;;5077585;28;20902;-69
2023/01/29 12:59:52;;;;;;;19.43;11.30;;;4.00;99.90;;;;;;5077554;28;20442;-69
2023/01/29 13:02:30;;;;;;;18.33;12.87;;;4.00;99.90;;;;;;5077497;28;20534;-69
2023/01/29 13:05:03;;;;;;;16.27;11.30;;;4.10;99.90;;;;;;5077173;28;20458;-69
2023/01/29 13:07:34;;;;;;;19.20;11.60;;;4.10;99.90;;;;;;5078376;28;20515;-69
2023/01/29 13:10:08;;;;;;;17.97;11.90;;;4.00;99.90;;;;;;5077898;28;20438;-70
2023/01/29 13:12:37;;;;;;;19.97;11.10;;;4.00;99.90;;;;;;5078283;28;20438;-69
2023/01/29 13:15:13;;;;;;;17.27;11.63;;;4.00;99.90;;;;;;5077989;28;20464;-69
2023/01/29 13:17:43;;;;;;;16.73;11.93;;;4.00;99.90;;;;;;5076825;28;20449;-69
2023/01/29 13:20:15;;;;;;;17.97;11.30;;;4.00;99.90;;;;;;5076726;28;20442;-69
2023/01/29 13:22:44;;;;;;;16.60;11.93;;;4.00;99.90;;;;;;5076652;28;20461;-69
2023/01/29 13:25:16;;;;;;;20.17;11.73;;;4.00;99.90;;;;;;5075948;28;20621;-68
2023/01/29 13:27:46;;;;;;;17.90;12.30;;;4.00;99.90;;;;;;5075282;28;20443;-69